createdAt,value
2018-02-21T00:00:36.412Z,2.79
2018-02-21T00:03:06.435Z,2.72
2018-02-21T00:04:20.980Z,2.64
2018-02-21T00:05:35.479Z,2.69
2018-02-21T00:06:49.246Z,2.7
2018-02-21T00:08:03.735Z,2.65
2018-02-21T00:09:18.191Z,2.72
2018-02-21T00:10:32.736Z,2.7
2018-02-21T00:11:46.999Z,2.73
2018-02-21T00:13:01.469Z,2.68
2018-02-21T00:14:15.924Z,2.65
2018-02-21T00:15:30.198Z,2.72
2018-02-21T00:16:44.972Z,2.7
2018-02-21T00:17:59.680Z,2.69
2018-02-21T00:19:12.971Z,2.68
2018-02-21T00:20:27.256Z,2.61
2018-02-21T00:21:41.482Z,2.57
2018-02-21T00:22:56.312Z,2.57
2018-02-21T00:24:10.286Z,2.62
2018-02-21T00:25:24.527Z,2.57
2018-02-21T00:26:38.317Z,2.68
2018-02-21T00:27:52.536Z,2.58
2018-02-21T00:29:07.096Z,2.57
2018-02-21T00:30:21.433Z,2.57
2018-02-21T00:31:35.418Z,2.55
2018-02-21T00:33:04.278Z,2.69
2018-02-21T00:34:19.421Z,2.51
2018-02-21T00:35:33.659Z,2.68
2018-02-21T00:36:47.908Z,2.65
2018-02-21T00:38:02.175Z,2.61
2018-02-21T00:39:16.782Z,2.68
2018-02-21T00:40:31.230Z,2.65
2018-02-21T00:41:45.958Z,2.59
2018-02-21T00:43:00.449Z,2.52
2018-02-21T00:44:14.949Z,2.62
2018-02-21T00:45:29.438Z,2.55
2018-02-21T00:46:43.457Z,2.58
2018-02-21T00:47:57.734Z,2.61
2018-02-21T00:49:11.971Z,2.68
2018-02-21T00:50:25.943Z,2.68
2018-02-21T00:51:40.145Z,2.64
2018-02-21T00:52:53.871Z,2.68
2018-02-21T00:54:08.409Z,2.64
2018-02-21T00:55:22.149Z,2.73
2018-02-21T00:56:36.611Z,2.68
2018-02-21T00:57:51.060Z,2.75
2018-02-21T00:59:05.532Z,2.64
2018-02-21T01:00:34.741Z,2.75
2018-02-21T01:01:49.240Z,2.69
2018-02-21T01:03:03.715Z,2.68
2018-02-21T01:04:18.177Z,2.58
2018-02-21T01:05:32.704Z,2.68
2018-02-21T01:06:47.029Z,2.62
2018-02-21T01:08:01.005Z,2.57
2018-02-21T01:09:14.993Z,2.59
2018-02-21T01:10:29.452Z,2.65
2018-02-21T01:11:43.472Z,2.64
2018-02-21T01:12:57.919Z,2.61
2018-02-21T01:14:12.135Z,2.64
2018-02-21T01:15:26.124Z,2.61
2018-02-21T01:16:39.844Z,2.65
2018-02-21T01:17:54.363Z,2.73
2018-02-21T01:19:08.579Z,2.62
2018-02-21T01:20:22.580Z,2.68
2018-02-21T01:21:36.814Z,2.72
2018-02-21T01:22:50.554Z,2.58
2018-02-21T01:24:05.085Z,2.58
2018-02-21T01:25:19.584Z,2.68
2018-02-21T01:26:34.076Z,2.54
2018-02-21T01:27:48.066Z,2.69
2018-02-21T01:29:01.816Z,2.72
2018-02-21T01:30:16.321Z,2.75
2018-02-21T01:31:30.366Z,2.91
2018-02-21T01:32:44.621Z,2.8
2018-02-21T01:33:58.612Z,2.83
2018-02-21T01:35:12.364Z,2.88
2018-02-21T01:36:26.663Z,2.82
2018-02-21T01:37:40.661Z,2.8
2018-02-21T01:38:54.899Z,2.8
2018-02-21T01:40:09.487Z,2.8
2018-02-21T01:41:23.698Z,2.7
2018-02-21T01:42:37.733Z,2.8
2018-02-21T01:44:06.865Z,2.79
2018-02-21T01:45:21.333Z,2.79
2018-02-21T01:46:35.083Z,2.76
2018-02-21T01:47:49.880Z,2.72
2018-02-21T01:49:04.167Z,2.77
2018-02-21T01:50:18.644Z,2.73
2018-02-21T01:51:32.644Z,2.7
2018-02-21T01:52:46.617Z,2.75
2018-02-21T01:54:00.678Z,2.7
2018-02-21T01:55:14.441Z,2.77
2018-02-21T01:56:28.175Z,2.73
2018-02-21T01:57:41.932Z,2.76
2018-02-21T01:58:55.663Z,2.76
2018-02-21T02:00:10.136Z,2.76
2018-02-21T02:01:24.430Z,2.79
2018-02-21T02:02:38.186Z,2.8
2018-02-21T02:03:52.409Z,2.77
2018-02-21T02:05:06.895Z,2.77
2018-02-21T02:06:21.633Z,2.88
2018-02-21T02:07:35.630Z,2.83
2018-02-21T02:08:49.638Z,2.76
2018-02-21T02:10:03.860Z,2.82
2018-02-21T02:11:17.901Z,2.75
2018-02-21T02:12:32.054Z,2.7
2018-02-21T02:13:46.076Z,2.64
2018-02-21T02:14:59.621Z,2.54
2018-02-21T02:16:13.854Z,2.62
2018-02-21T02:17:27.862Z,2.64
2018-02-21T02:18:42.870Z,2.7
2018-02-21T02:19:56.629Z,2.72
2018-02-21T02:21:10.889Z,2.69
2018-02-21T02:22:25.132Z,2.65
2018-02-21T02:23:39.844Z,2.72
2018-02-21T02:24:53.630Z,2.73
2018-02-21T02:26:07.652Z,2.75
2018-02-21T02:27:22.140Z,2.68
2018-02-21T02:28:36.159Z,2.76
2018-02-21T02:29:50.385Z,2.69
2018-02-21T02:31:04.748Z,2.59
2018-02-21T02:32:19.477Z,2.55
2018-02-21T02:33:32.720Z,2.64
2018-02-21T02:34:46.983Z,2.73
2018-02-21T02:36:00.954Z,2.75
2018-02-21T02:37:15.479Z,2.68
2018-02-21T02:38:29.735Z,2.68
2018-02-21T02:39:43.922Z,2.73
2018-02-21T02:40:58.155Z,2.76
2018-02-21T02:42:11.919Z,2.77
2018-02-21T02:43:26.392Z,2.73
2018-02-21T02:44:40.869Z,2.77
2018-02-21T02:45:55.479Z,2.72
2018-02-21T02:47:24.616Z,2.68
2018-02-21T02:48:39.531Z,2.73
2018-02-21T02:49:54.076Z,2.77
2018-02-21T02:51:08.345Z,2.73
2018-02-21T02:52:22.572Z,2.73
2018-02-21T02:53:36.553Z,2.72
2018-02-21T02:54:51.119Z,2.68
2018-02-21T02:56:05.356Z,2.72
2018-02-21T02:57:19.610Z,2.72
2018-02-21T02:58:33.833Z,2.75
2018-02-21T02:59:47.627Z,2.76
2018-02-21T03:01:01.912Z,2.82
2018-02-21T03:02:16.633Z,2.79
2018-02-21T03:03:30.652Z,2.76
2018-02-21T03:04:44.862Z,2.68
2018-02-21T03:05:58.648Z,2.7
2018-02-21T03:07:13.174Z,2.76
2018-02-21T03:08:26.920Z,2.7
2018-02-21T03:09:41.142Z,2.69
2018-02-21T03:10:55.614Z,2.8
2018-02-21T03:12:10.331Z,2.87
2018-02-21T03:13:24.855Z,2.94
2018-02-21T03:14:39.328Z,2.9
2018-02-21T03:15:53.544Z,2.93
2018-02-21T03:17:07.332Z,2.88
2018-02-21T03:18:21.243Z,2.79
2018-02-21T03:19:35.054Z,2.77
2018-02-21T03:20:49.238Z,2.7
2018-02-21T03:22:03.442Z,2.76
2018-02-21T03:23:17.930Z,2.97
2018-02-21T03:24:32.171Z,3
2018-02-21T03:25:46.253Z,2.95
2018-02-21T03:27:00.241Z,2.8
2018-02-21T03:28:14.230Z,2.83
2018-02-21T03:29:28.977Z,2.75
2018-02-21T03:30:42.947Z,2.73
2018-02-21T03:31:57.256Z,2.75
2018-02-21T03:33:11.260Z,2.7
2018-02-21T03:34:25.731Z,2.76
2018-02-21T03:35:39.937Z,2.7
2018-02-21T03:36:54.183Z,2.72
2018-02-21T03:38:08.725Z,2.73
2018-02-21T03:39:22.960Z,2.55
2018-02-21T03:40:36.725Z,2.69
2018-02-21T03:41:51.441Z,2.58
2018-02-21T03:43:05.184Z,2.65
2018-02-21T03:44:19.232Z,2.72
2018-02-21T03:45:33.012Z,2.59
2018-02-21T03:46:47.490Z,2.64
2018-02-21T03:48:01.454Z,2.59
2018-02-21T03:49:15.190Z,2.62
2018-02-21T03:50:29.993Z,2.58
2018-02-21T03:51:43.620Z,2.59
2018-02-21T03:52:57.116Z,2.61
2018-02-21T03:54:11.333Z,2.55
2018-02-21T03:55:25.544Z,2.54
2018-02-21T03:56:39.582Z,2.54
2018-02-21T03:57:53.572Z,2.68
2018-02-21T03:59:07.360Z,2.61
2018-02-21T04:00:36.221Z,2.55
2018-02-21T04:01:49.483Z,2.65
2018-02-21T04:03:03.628Z,2.61
2018-02-21T04:04:17.635Z,2.55
2018-02-21T04:05:31.632Z,2.57
2018-02-21T04:06:46.083Z,2.55
2018-02-21T04:07:59.311Z,2.57
2018-02-21T04:09:13.854Z,2.58
2018-02-21T04:10:27.826Z,2.61
2018-02-21T04:11:42.282Z,2.51
2018-02-21T04:12:56.758Z,2.54
2018-02-21T04:14:10.734Z,2.59
2018-02-21T04:15:25.262Z,2.52
2018-02-21T04:16:39.025Z,2.52
2018-02-21T04:17:53.036Z,2.52
2018-02-21T04:19:07.268Z,2.41
2018-02-21T04:20:21.316Z,2.47
2018-02-21T04:21:35.388Z,2.47
2018-02-21T04:22:49.418Z,2.54
2018-02-21T04:24:04.282Z,2.44
2018-02-21T04:25:18.798Z,2.5
2018-02-21T04:26:33.287Z,2.4
2018-02-21T04:27:47.855Z,2.37
2018-02-21T04:29:01.884Z,2.41
2018-02-21T04:30:16.351Z,2.39
2018-02-21T04:31:30.358Z,2.36
2018-02-21T04:32:44.421Z,2.28
2018-02-21T04:33:58.874Z,2.22
2018-02-21T04:35:13.170Z,2.19
2018-02-21T04:36:27.918Z,2.14
2018-02-21T04:37:42.681Z,2.15
2018-02-21T04:38:56.041Z,2.15
2018-02-21T04:40:10.855Z,2.03
2018-02-21T04:41:24.367Z,1.93
2018-02-21T04:42:38.362Z,2.03
2018-02-21T04:43:52.361Z,1.82
2018-02-21T04:45:06.873Z,1.92
2018-02-21T04:46:21.182Z,1.88
2018-02-21T04:47:35.467Z,1.95
2018-02-21T04:48:49.242Z,1.84
2018-02-21T04:50:02.989Z,1.93
2018-02-21T04:51:17.274Z,1.92
2018-02-21T04:52:32.036Z,1.85
2018-02-21T04:53:46.522Z,1.82
2018-02-21T04:55:01.263Z,1.84
2018-02-21T04:56:15.767Z,1.81
2018-02-21T04:57:29.912Z,1.7
2018-02-21T04:58:44.006Z,1.75
2018-02-21T04:59:58.244Z,1.75
2018-02-21T05:01:12.248Z,1.78
2018-02-21T05:02:26.223Z,1.75
2018-02-21T05:03:40.252Z,1.66
2018-02-21T05:04:54.833Z,1.7
2018-02-21T05:06:09.083Z,1.68
2018-02-21T05:07:23.322Z,1.63
2018-02-21T05:08:37.824Z,1.76
2018-02-21T05:09:52.059Z,1.74
2018-02-21T05:11:06.124Z,1.75
2018-02-21T05:12:20.087Z,1.68
2018-02-21T05:13:34.572Z,1.67
2018-02-21T05:14:48.714Z,1.64
2018-02-21T05:16:03.015Z,1.63
2018-02-21T05:17:17.597Z,1.61
2018-02-21T05:18:32.068Z,1.66
2018-02-21T05:19:46.345Z,1.6
2018-02-21T05:21:00.870Z,1.61
2018-02-21T05:22:15.342Z,1.48
2018-02-21T05:23:30.134Z,1.52
2018-02-21T05:24:44.133Z,1.57
2018-02-21T05:25:57.659Z,1.6
2018-02-21T05:27:11.162Z,1.49
2018-02-21T05:28:25.136Z,1.6
2018-02-21T05:29:39.694Z,1.56
2018-02-21T05:30:54.271Z,1.56
2018-02-21T05:32:08.003Z,1.56
2018-02-21T05:33:21.762Z,1.6
2018-02-21T05:34:35.503Z,1.6
2018-02-21T05:35:50.034Z,1.57
2018-02-21T05:37:04.037Z,1.52
2018-02-21T05:38:18.288Z,1.56
2018-02-21T05:39:31.837Z,1.56
2018-02-21T05:40:45.608Z,1.45
2018-02-21T05:41:59.926Z,1.52
2018-02-21T05:43:13.907Z,1.52
2018-02-21T05:44:28.176Z,1.57
2018-02-21T05:45:42.205Z,1.56
2018-02-21T05:46:56.457Z,1.45
2018-02-21T05:48:10.794Z,1.53
2018-02-21T05:49:25.263Z,1.5
2018-02-21T05:50:39.240Z,1.43
2018-02-21T05:51:53.476Z,1.5
2018-02-21T05:53:07.749Z,1.46
2018-02-21T05:54:22.105Z,1.49
2018-02-21T05:55:36.338Z,1.53
2018-02-21T05:56:50.798Z,1.49
2018-02-21T05:58:05.045Z,1.5
2018-02-21T05:59:19.321Z,1.5
2018-02-21T06:00:33.624Z,1.45
2018-02-21T06:01:47.167Z,1.49
2018-02-21T06:03:15.938Z,1.5
2018-02-21T06:04:29.722Z,1.43
2018-02-21T06:05:43.525Z,1.48
2018-02-21T06:06:57.740Z,1.48
2018-02-21T06:08:11.747Z,1.48
2018-02-21T06:09:25.753Z,1.49
2018-02-21T06:10:40.002Z,1.4
2018-02-21T06:11:54.804Z,1.46
2018-02-21T06:13:09.077Z,1.34
2018-02-21T06:14:22.838Z,1.38
2018-02-21T06:15:36.350Z,1.42
2018-02-21T06:17:05.231Z,1.43
2018-02-21T06:18:19.796Z,1.38
2018-02-21T06:19:34.363Z,1.39
2018-02-21T06:20:48.627Z,1.38
2018-02-21T06:22:02.898Z,1.36
2018-02-21T06:23:16.896Z,1.36
2018-02-21T06:24:30.994Z,1.31
2018-02-21T06:25:45.328Z,1.38
2018-02-21T06:26:59.644Z,1.34
2018-02-21T06:28:13.954Z,1.28
2018-02-21T06:29:27.973Z,1.32
2018-02-21T06:30:42.061Z,1.3
2018-02-21T06:31:56.342Z,1.25
2018-02-21T06:33:10.586Z,1.38
2018-02-21T06:34:24.822Z,1.36
2018-02-21T06:35:39.141Z,1.38
2018-02-21T06:36:53.906Z,1.38
2018-02-21T06:38:07.921Z,1.38
2018-02-21T06:39:21.914Z,1.42
2018-02-21T06:40:36.162Z,1.42
2018-02-21T06:41:49.677Z,1.43
2018-02-21T06:43:04.282Z,1.42
2018-02-21T06:44:18.336Z,1.5
2018-02-21T06:45:32.108Z,1.4
2018-02-21T06:46:46.594Z,1.4
2018-02-21T06:48:00.596Z,1.36
2018-02-21T06:49:14.889Z,1.36
2018-02-21T06:50:29.114Z,1.39
2018-02-21T06:51:43.385Z,1.45
2018-02-21T06:52:57.180Z,1.4
2018-02-21T06:54:11.213Z,1.43
2018-02-21T06:55:25.208Z,1.48
2018-02-21T06:56:39.035Z,1.4
2018-02-21T06:57:53.327Z,1.42
2018-02-21T06:59:07.565Z,1.46
2018-02-21T07:00:21.352Z,1.49
2018-02-21T07:01:35.836Z,1.52
2018-02-21T07:02:49.592Z,1.48
2018-02-21T07:04:04.096Z,1.46
2018-02-21T07:05:18.863Z,1.53
2018-02-21T07:06:33.100Z,1.58
2018-02-21T07:07:46.877Z,1.53
2018-02-21T07:09:01.469Z,1.46
2018-02-21T07:10:16.013Z,1.49
2018-02-21T07:11:30.494Z,1.43
2018-02-21T07:12:44.504Z,1.49
2018-02-21T07:13:58.494Z,1.48
2018-02-21T07:15:12.316Z,1.52
2018-02-21T07:16:26.096Z,1.57
2018-02-21T07:17:39.903Z,1.49
2018-02-21T07:18:53.700Z,1.57
2018-02-21T07:20:07.206Z,1.53
2018-02-21T07:21:21.214Z,1.57
2018-02-21T07:22:34.724Z,1.6
2018-02-21T07:23:48.244Z,1.53
2018-02-21T07:25:02.745Z,1.49
2018-02-21T07:26:16.229Z,1.56
2018-02-21T07:27:30.480Z,1.58
2018-02-21T07:28:44.783Z,1.6
2018-02-21T07:29:58.616Z,1.63
2018-02-21T07:31:12.872Z,1.56
2018-02-21T07:32:27.352Z,1.57
2018-02-21T07:33:42.124Z,1.52
2018-02-21T07:34:55.899Z,1.56
2018-02-21T07:36:09.946Z,1.57
2018-02-21T07:37:23.949Z,1.61
2018-02-21T07:38:37.934Z,1.68
2018-02-21T07:39:52.192Z,1.63
2018-02-21T07:41:21.357Z,1.66
2018-02-21T07:42:35.994Z,1.67
2018-02-21T07:43:49.747Z,1.74
2018-02-21T07:45:03.522Z,1.74
2018-02-21T07:46:18.125Z,1.63
2018-02-21T07:47:32.643Z,1.64
2018-02-21T07:48:46.891Z,1.74
2018-02-21T07:50:00.918Z,1.64
2018-02-21T07:51:15.301Z,1.66
2018-02-21T07:52:29.453Z,1.71
2018-02-21T07:53:43.945Z,1.68
2018-02-21T07:54:58.462Z,1.68
2018-02-21T07:56:12.244Z,1.74
2018-02-21T07:57:26.334Z,1.68
2018-02-21T07:58:55.696Z,1.76
2018-02-21T08:00:09.712Z,1.81
2018-02-21T08:01:23.614Z,1.85
2018-02-21T08:02:37.426Z,1.85
2018-02-21T08:03:51.973Z,1.88
2018-02-21T08:05:06.620Z,1.88
2018-02-21T08:06:20.935Z,1.85
2018-02-21T08:07:34.728Z,1.89
2018-02-21T08:08:48.284Z,1.93
2018-02-21T08:10:03.077Z,1.95
2018-02-21T08:11:17.339Z,2.03
2018-02-21T08:12:31.617Z,2.03
2018-02-21T08:13:46.086Z,2.03
2018-02-21T08:15:00.245Z,2.1
2018-02-21T08:16:13.762Z,2.15
2018-02-21T08:17:28.270Z,2.19
2018-02-21T08:18:42.319Z,2.28
2018-02-21T08:19:56.558Z,2.25
2018-02-21T08:21:10.341Z,2.21
2018-02-21T08:22:24.351Z,2.3
2018-02-21T08:23:38.628Z,2.3
2018-02-21T08:24:52.907Z,2.23
2018-02-21T08:26:07.156Z,2.37
2018-02-21T08:27:21.682Z,2.36
2018-02-21T08:28:35.199Z,2.32
2018-02-21T08:29:49.217Z,2.28
2018-02-21T08:31:03.232Z,2.37
2018-02-21T08:32:17.298Z,2.33
2018-02-21T08:33:31.029Z,2.32
2018-02-21T08:34:45.632Z,2.39
2018-02-21T08:35:59.661Z,2.43
2018-02-21T08:37:14.372Z,2.22
2018-02-21T08:38:28.622Z,2.16
2018-02-21T08:39:42.635Z,2.18
2018-02-21T08:40:56.876Z,2.23
2018-02-21T08:42:10.648Z,2.18
2018-02-21T08:43:24.694Z,2.16
2018-02-21T08:44:38.939Z,2.16
2018-02-21T08:45:53.454Z,2.08
2018-02-21T08:47:07.446Z,2.18
2018-02-21T08:48:21.526Z,2.26
2018-02-21T08:49:36.286Z,2.28
2018-02-21T08:50:50.813Z,2.28
2018-02-21T08:52:04.849Z,2.39
2018-02-21T08:53:19.121Z,2.23
2018-02-21T08:54:33.360Z,2.26
2018-02-21T08:55:47.388Z,2.34
2018-02-21T08:57:01.390Z,2.34
2018-02-21T08:58:15.848Z,2.4
2018-02-21T08:59:29.839Z,2.22
2018-02-21T09:00:43.823Z,2.21
2018-02-21T09:01:57.851Z,2.33
2018-02-21T09:03:12.095Z,2.36
2018-02-21T09:04:26.124Z,2.4
2018-02-21T09:05:40.585Z,2.4
2018-02-21T09:06:54.352Z,2.44
2018-02-21T09:08:08.331Z,2.51
2018-02-21T09:09:22.548Z,2.4
2018-02-21T09:10:36.552Z,2.58
2018-02-21T09:11:51.269Z,2.59
2018-02-21T09:13:05.549Z,2.7
2018-02-21T09:14:20.087Z,2.55
2018-02-21T09:15:34.577Z,2.54
2018-02-21T09:16:48.907Z,2.5
2018-02-21T09:18:02.640Z,2.52
2018-02-21T09:19:16.164Z,2.33
2018-02-21T09:20:30.424Z,2.44
2018-02-21T09:21:45.143Z,2.54
2018-02-21T09:22:59.185Z,2.46
2018-02-21T09:24:12.948Z,2.55
2018-02-21T09:25:26.966Z,2.37
2018-02-21T09:26:41.272Z,2.52
2018-02-21T09:27:55.809Z,2.37
2018-02-21T09:29:09.939Z,2.57
2018-02-21T09:30:24.929Z,2.62
2018-02-21T09:31:39.178Z,2.69
2018-02-21T09:32:53.218Z,2.75
2018-02-21T09:34:07.472Z,2.77
2018-02-21T09:35:21.810Z,2.9
2018-02-21T09:36:36.287Z,2.94
2018-02-21T09:37:50.793Z,2.79
2018-02-21T09:39:05.053Z,3.03
2018-02-21T09:40:18.815Z,2.95
2018-02-21T09:41:32.315Z,2.95
2018-02-21T09:42:46.579Z,3.05
2018-02-21T09:44:00.839Z,2.94
2018-02-21T09:45:14.624Z,3
2018-02-21T09:46:29.093Z,3.12
2018-02-21T09:47:43.576Z,3.12
2018-02-21T09:48:57.842Z,3.19
2018-02-21T09:50:11.613Z,3.19
2018-02-21T09:51:25.633Z,3.16
2018-02-21T09:52:40.114Z,3.12
2018-02-21T09:53:54.627Z,3.21
2018-02-21T09:55:09.226Z,3.27
2018-02-21T09:56:23.728Z,3.36
2018-02-21T09:57:37.731Z,3.21
2018-02-21T09:58:51.995Z,3.16
2018-02-21T10:00:06.233Z,3.19
2018-02-21T10:01:20.747Z,3.21
2018-02-21T10:02:35.054Z,3.18
2018-02-21T10:03:49.315Z,3.3
2018-02-21T10:05:03.575Z,3.41
2018-02-21T10:06:18.075Z,3.52
2018-02-21T10:07:32.090Z,3.53
2018-02-21T10:08:45.883Z,3.58
2018-02-21T10:10:00.116Z,3.37
2018-02-21T10:11:14.632Z,3.41
2018-02-21T10:12:29.374Z,3.43
2018-02-21T10:13:43.877Z,3.67
2018-02-21T10:14:58.107Z,3.56
2018-02-21T10:16:11.861Z,3.55
2018-02-21T10:17:26.077Z,3.67
2018-02-21T10:18:40.330Z,3.68
2018-02-21T10:19:54.333Z,3.7
2018-02-21T10:21:08.126Z,3.71
2018-02-21T10:22:22.090Z,3.66
2018-02-21T10:23:36.332Z,3.7
2018-02-21T10:24:50.356Z,3.66
2018-02-21T10:26:05.119Z,3.77
2018-02-21T10:27:19.130Z,3.73
2018-02-21T10:28:33.259Z,3.68
2018-02-21T10:29:47.313Z,3.66
2018-02-21T10:31:01.551Z,3.63
2018-02-21T10:32:16.053Z,3.68
2018-02-21T10:33:30.039Z,3.73
2018-02-21T10:34:44.506Z,3.76
2018-02-21T10:35:58.776Z,3.73
2018-02-21T10:37:12.063Z,3.94
2018-02-21T10:38:25.807Z,3.96
2018-02-21T10:39:39.859Z,3.96
2018-02-21T10:40:53.866Z,3.96
2018-02-21T10:42:08.635Z,3.96
2018-02-21T10:43:22.688Z,3.84
2018-02-21T10:44:36.465Z,3.84
2018-02-21T10:45:50.203Z,3.96
2018-02-21T10:47:04.502Z,4
2018-02-21T10:48:18.284Z,4.02
2018-02-21T10:49:32.080Z,4
2018-02-21T10:50:46.609Z,4.07
2018-02-21T10:52:00.896Z,4.12
2018-02-21T10:53:14.672Z,4.32
2018-02-21T10:54:28.926Z,4.27
2018-02-21T10:55:42.474Z,4.31
2018-02-21T10:56:56.250Z,4.28
2018-02-21T10:58:10.490Z,4.28
2018-02-21T10:59:25.265Z,4.25
2018-02-21T11:00:39.552Z,4.36
2018-02-21T11:01:53.686Z,4.25
2018-02-21T11:03:07.233Z,4.16
2018-02-21T11:04:21.269Z,4.27
2018-02-21T11:05:35.016Z,4.27
2018-02-21T11:06:49.541Z,4.42
2018-02-21T11:08:03.800Z,4.36
2018-02-21T11:09:18.298Z,4.45
2018-02-21T11:10:32.097Z,4.48
2018-02-21T11:11:46.589Z,4.38
2018-02-21T11:13:00.374Z,4.45
2018-02-21T11:14:14.400Z,4.46
2018-02-21T11:15:28.460Z,4.24
2018-02-21T11:16:42.227Z,4.34
2018-02-21T11:17:56.537Z,4.36
2018-02-21T11:19:10.787Z,4.27
2018-02-21T11:20:25.065Z,4.31
2018-02-21T11:21:39.074Z,4.39
2018-02-21T11:22:53.792Z,4.45
2018-02-21T11:24:07.577Z,4.42
2018-02-21T11:25:21.848Z,4.36
2018-02-21T11:26:35.598Z,4.43
2018-02-21T11:27:49.848Z,4.49
2018-02-21T11:29:03.851Z,4.5
2018-02-21T11:30:18.401Z,4.36
2018-02-21T11:31:32.673Z,4.45
2018-02-21T11:32:46.982Z,4.5
2018-02-21T11:34:01.487Z,4.5
2018-02-21T11:35:15.842Z,4.56
2018-02-21T11:36:30.061Z,4.66
2018-02-21T11:37:44.070Z,4.64
2018-02-21T11:38:58.311Z,4.74
2018-02-21T11:40:12.611Z,4.57
2018-02-21T11:41:26.595Z,4.61
2018-02-21T11:42:40.838Z,4.58
2018-02-21T11:43:54.874Z,4.64
2018-02-21T11:45:08.162Z,4.6
2018-02-21T11:46:21.960Z,4.66
2018-02-21T11:47:35.491Z,4.64
2018-02-21T11:48:49.758Z,4.68
2018-02-21T11:50:04.018Z,4.7
2018-02-21T11:51:18.550Z,4.64
2018-02-21T11:52:32.088Z,4.75
2018-02-21T11:53:46.350Z,4.7
2018-02-21T11:55:00.876Z,4.74
2018-02-21T11:56:14.646Z,4.64
2018-02-21T11:57:28.897Z,4.78
2018-02-21T11:58:42.701Z,4.74
2018-02-21T11:59:56.730Z,4.79
2018-02-21T12:01:10.764Z,4.75
2018-02-21T12:02:24.333Z,4.83
2018-02-21T12:03:38.600Z,4.76
2018-02-21T12:04:53.288Z,4.84
2018-02-21T12:06:07.547Z,4.83
2018-02-21T12:07:21.824Z,4.67
2018-02-21T12:08:36.198Z,4.78
2018-02-21T12:09:50.717Z,4.84
2018-02-21T12:11:04.756Z,4.84
2018-02-21T12:12:19.300Z,4.92
2018-02-21T12:13:33.575Z,4.97
2018-02-21T12:14:48.071Z,4.87
2018-02-21T12:16:01.910Z,4.92
2018-02-21T12:17:15.727Z,4.92
2018-02-21T12:18:29.749Z,5.01
2018-02-21T12:19:43.554Z,5.02
2018-02-21T12:20:57.312Z,5.18
2018-02-21T12:22:11.349Z,5.22
2018-02-21T12:23:25.608Z,5.28
2018-02-21T12:24:40.117Z,5.25
2018-02-21T12:25:53.919Z,5.12
2018-02-21T12:27:07.700Z,5.19
2018-02-21T12:28:21.463Z,5.23
2018-02-21T12:29:35.090Z,5.19
2018-02-21T12:30:49.620Z,5.22
2018-02-21T12:32:03.622Z,5.2
2018-02-21T12:33:17.411Z,5.31
2018-02-21T12:34:31.675Z,5.23
2018-02-21T12:35:45.929Z,5.22
2018-02-21T12:36:59.516Z,5.25
2018-02-21T12:38:13.799Z,5.26
2018-02-21T12:39:28.070Z,5.16
2018-02-21T12:40:42.486Z,5.12
2018-02-21T12:41:56.876Z,5.19
2018-02-21T12:43:11.424Z,5.23
2018-02-21T12:44:25.912Z,5.33
2018-02-21T12:45:39.728Z,5.25
2018-02-21T12:46:54.074Z,5.33
2018-02-21T12:48:08.573Z,5.26
2018-02-21T12:49:22.596Z,5.41
2018-02-21T12:50:37.125Z,5.44
2018-02-21T12:51:51.632Z,5.43
2018-02-21T12:53:05.929Z,5.58
2018-02-21T12:54:20.494Z,5.54
2018-02-21T12:55:34.953Z,5.72
2018-02-21T12:56:49.215Z,5.69
2018-02-21T12:58:02.981Z,5.69
2018-02-21T12:59:17.502Z,5.69
2018-02-21T13:00:31.591Z,5.67
2018-02-21T13:01:46.116Z,5.7
2018-02-21T13:03:00.881Z,5.59
2018-02-21T13:04:14.941Z,5.69
2018-02-21T13:05:29.026Z,5.64
2018-02-21T13:06:43.030Z,5.7
2018-02-21T13:07:57.048Z,5.44
2018-02-21T13:09:11.605Z,5.41
2018-02-21T13:10:25.139Z,5.61
2018-02-21T13:11:39.650Z,5.61
2018-02-21T13:12:53.682Z,5.64
2018-02-21T13:14:07.335Z,5.59
2018-02-21T13:15:21.724Z,5.4
2018-02-21T13:16:35.835Z,5.59
2018-02-21T13:17:49.588Z,5.61
2018-02-21T13:19:04.125Z,5.59
2018-02-21T13:20:18.157Z,5.59
2018-02-21T13:21:32.902Z,5.55
2018-02-21T13:22:46.705Z,5.64
2018-02-21T13:24:01.219Z,5.65
2018-02-21T13:25:15.037Z,5.72
2018-02-21T13:26:29.823Z,5.7
2018-02-21T13:27:43.584Z,5.73
2018-02-21T13:28:58.334Z,5.9
2018-02-21T13:30:12.399Z,5.8
2018-02-21T13:31:26.546Z,5.76
2018-02-21T13:32:41.149Z,5.67
2018-02-21T13:33:55.187Z,5.76
2018-02-21T13:35:09.217Z,5.8
2018-02-21T13:36:23.705Z,5.98
2018-02-21T13:37:37.740Z,5.92
2018-02-21T13:38:52.132Z,5.9
2018-02-21T13:40:06.171Z,5.98
2018-02-21T13:41:20.693Z,5.88
2018-02-21T13:42:35.219Z,5.84
2018-02-21T13:43:49.243Z,5.83
2018-02-21T13:45:03.273Z,5.84
2018-02-21T13:46:17.544Z,5.88
2018-02-21T13:47:31.344Z,5.83
2018-02-21T13:48:45.487Z,5.84
2018-02-21T13:50:00.005Z,5.88
2018-02-21T13:51:14.281Z,5.76
2018-02-21T13:52:28.832Z,5.87
2018-02-21T13:53:43.369Z,5.74
2018-02-21T13:54:57.615Z,5.76
2018-02-21T13:56:11.881Z,5.83
2018-02-21T13:57:26.143Z,5.69
2018-02-21T13:58:40.215Z,5.67
2018-02-21T13:59:53.717Z,5.76
2018-02-21T14:01:07.502Z,5.76
2018-02-21T14:02:21.750Z,5.83
2018-02-21T14:03:36.486Z,5.88
2018-02-21T14:04:50.273Z,5.92
2018-02-21T14:06:04.512Z,6.07
2018-02-21T14:07:18.811Z,6.05
2018-02-21T14:08:33.066Z,6.05
2018-02-21T14:09:47.062Z,5.94
2018-02-21T14:11:01.305Z,5.81
2018-02-21T14:12:15.331Z,5.87
2018-02-21T14:13:29.062Z,5.94
2018-02-21T14:14:43.336Z,6.05
2018-02-21T14:15:57.101Z,6.1
2018-02-21T14:17:11.408Z,5.92
2018-02-21T14:18:25.948Z,6.02
2018-02-21T14:19:39.999Z,5.97
2018-02-21T14:20:54.020Z,5.99
2018-02-21T14:22:08.622Z,6.02
2018-02-21T14:23:37.540Z,6.09
2018-02-21T14:24:51.780Z,6.06
2018-02-21T14:26:06.556Z,6.02
2018-02-21T14:27:20.952Z,6.05
2018-02-21T14:28:35.007Z,6.02
2018-02-21T14:29:49.269Z,5.95
2018-02-21T14:31:03.547Z,5.95
2018-02-21T14:32:17.783Z,5.94
2018-02-21T14:33:32.309Z,5.84
2018-02-21T14:34:46.885Z,5.99
2018-02-21T14:36:01.155Z,5.87
2018-02-21T14:37:14.963Z,5.92
2018-02-21T14:38:28.986Z,5.91
2018-02-21T14:39:43.013Z,5.88
2018-02-21T14:41:12.382Z,5.94
2018-02-21T14:42:27.225Z,6.02
2018-02-21T14:43:41.265Z,5.99
2018-02-21T14:44:55.500Z,5.98
2018-02-21T14:46:09.766Z,6.1
2018-02-21T14:47:23.764Z,6.09
2018-02-21T14:48:37.547Z,6.05
2018-02-21T14:49:51.567Z,5.95
2018-02-21T14:51:05.354Z,5.92
2018-02-21T14:52:19.624Z,5.92
2018-02-21T14:53:34.112Z,5.97
2018-02-21T14:54:48.245Z,5.91
2018-02-21T14:56:02.775Z,6.02
2018-02-21T14:57:17.306Z,5.84
2018-02-21T14:58:31.599Z,5.84
2018-02-21T14:59:45.866Z,5.92
2018-02-21T15:01:00.395Z,5.83
2018-02-21T15:02:13.926Z,5.87
2018-02-21T15:03:27.967Z,5.94
2018-02-21T15:04:41.780Z,6.01
2018-02-21T15:05:55.530Z,5.95
2018-02-21T15:07:10.035Z,6.01
2018-02-21T15:08:24.096Z,5.94
2018-02-21T15:09:37.650Z,6.12
2018-02-21T15:10:51.891Z,5.95
2018-02-21T15:12:06.150Z,6.01
2018-02-21T15:13:20.394Z,6.1
2018-02-21T15:14:34.451Z,6.07
2018-02-21T15:15:48.946Z,6.02
2018-02-21T15:17:03.021Z,6.06
2018-02-21T15:18:17.051Z,6.02
2018-02-21T15:19:31.304Z,6.01
2018-02-21T15:20:45.875Z,5.94
2018-02-21T15:22:00.377Z,5.98
2018-02-21T15:23:13.744Z,6.02
2018-02-21T15:24:27.785Z,6.01
2018-02-21T15:25:41.859Z,5.98
2018-02-21T15:26:56.409Z,5.99
2018-02-21T15:28:10.573Z,6.05
2018-02-21T15:29:25.117Z,5.94
2018-02-21T15:30:39.159Z,6.05
2018-02-21T15:31:53.994Z,5.98
2018-02-21T15:33:08.557Z,6.05
2018-02-21T15:34:22.833Z,6.05
2018-02-21T15:35:37.104Z,6.01
2018-02-21T15:36:51.411Z,6.06
2018-02-21T15:38:05.902Z,6.09
2018-02-21T15:39:19.938Z,6.09
2018-02-21T15:40:33.978Z,6.05
2018-02-21T15:41:48.206Z,5.95
2018-02-21T15:43:02.445Z,5.99
2018-02-21T15:44:16.465Z,5.94
2018-02-21T15:45:30.973Z,5.99
2018-02-21T15:46:45.246Z,5.98
2018-02-21T15:47:59.241Z,5.88
2018-02-21T15:49:13.258Z,5.91
2018-02-21T15:50:27.502Z,5.84
2018-02-21T15:51:41.587Z,5.79
2018-02-21T15:52:56.092Z,5.77
2018-02-21T15:54:10.593Z,5.74
2018-02-21T15:55:24.695Z,5.77
2018-02-21T15:56:38.241Z,5.73
2018-02-21T15:57:52.741Z,5.65
2018-02-21T15:59:06.778Z,5.69
2018-02-21T16:00:21.165Z,5.64
2018-02-21T16:01:35.069Z,5.67
2018-02-21T16:02:49.583Z,5.67
2018-02-21T16:04:03.348Z,5.76
2018-02-21T16:05:17.370Z,5.65
2018-02-21T16:06:31.638Z,5.62
2018-02-21T16:07:45.764Z,5.7
2018-02-21T16:08:59.797Z,5.73
2018-02-21T16:10:13.875Z,5.69
2018-02-21T16:11:28.140Z,5.64
2018-02-21T16:12:42.385Z,5.62
2018-02-21T16:13:56.651Z,5.65
2018-02-21T16:15:11.403Z,5.56
2018-02-21T16:16:26.173Z,5.56
2018-02-21T16:17:40.457Z,5.56
2018-02-21T16:18:54.246Z,5.56
2018-02-21T16:20:08.529Z,5.56
2018-02-21T16:21:22.805Z,5.37
2018-02-21T16:22:37.143Z,5.4
2018-02-21T16:23:50.907Z,5.29
2018-02-21T16:25:04.971Z,5.38
2018-02-21T16:26:19.269Z,5.33
2018-02-21T16:27:33.402Z,5.23
2018-02-21T16:28:47.686Z,5.29
2018-02-21T16:30:01.264Z,5.2
2018-02-21T16:31:15.045Z,5.22
2018-02-21T16:32:29.373Z,5.23
2018-02-21T16:33:42.913Z,5.26
2018-02-21T16:34:57.123Z,5.19